sensor_id;sensor_type;location;lat;lon;timestamp;P1;durP1;ratioP1;P2;durP2;ratioP2
73452;SDS011;61687;56.232;43.854;2023-04-24T00:00:22;9.53;;;5.33;;
73452;SDS011;61687;56.232;43.854;2023-04-24T00:02:49;11.35;;;6.05;;
73452;SDS011;61687;56.232;43.854;2023-04-24T00:05:16;11.05;;;6.45;;
73452;SDS011;61687;56.232;43.854;2023-04-24T00:07:44;12.10;;;5.93;;
73452;SDS011;61687;56.232;43.854;2023-04-24T00:10:11;9.23;;;5.90;;
73452;SDS011;61687;56.232;43.854;2023-04-24T00:12:37;9.47;;;5.73;;
73452;SDS011;61687;56.232;43.854;2023-04-24T00:15:04;11.68;;;5.50;;
73452;SDS011;61687;56.232;43.854;2023-04-24T00:17:32;11.10;;;5.97;;
73452;SDS011;61687;56.232;43.854;2023-04-24T00:19:58;9.15;;;5.80;;
73452;SDS011;61687;56.232;43.854;2023-04-24T00:22:25;11.05;;;5.88;;
73452;SDS011;61687;56.232;43.854;2023-04-24T00:24:51;12.17;;;5.57;;
73452;SDS011;61687;56.232;43.854;2023-04-24T00:27:17;10.57;;;5.82;;
73452;SDS011;61687;56.232;43.854;2023-04-24T00:29:43;8.20;;;5.45;;
73452;SDS011;61687;56.232;43.854;2023-04-24T00:32:09;8.00;;;5.53;;
73452;SDS011;61687;56.232;43.854;2023-04-24T00:34:35;14.27;;;5.70;;
73452;SDS011;61687;56.232;43.854;2023-04-24T00:37:01;10.30;;;5.53;;
73452;SDS011;61687;56.232;43.854;2023-04-24T00:39:27;13.75;;;5.53;;
73452;SDS011;61687;56.232;43.854;2023-04-24T00:41:53;8.43;;;4.95;;
73452;SDS011;61687;56.232;43.854;2023-04-24T00:44:20;9.75;;;5.60;;
73452;SDS011;61687;56.232;43.854;2023-04-24T00:46:47;9.85;;;5.60;;
73452;SDS011;61687;56.232;43.854;2023-04-24T00:49:20;12.10;;;5.20;;
73452;SDS011;61687;56.232;43.854;2023-04-24T00:51:47;7.55;;;5.53;;
73452;SDS011;61687;56.232;43.854;2023-04-24T00:54:15;8.10;;;6.22;;
73452;SDS011;61687;56.232;43.854;2023-04-24T00:56:41;9.57;;;6.53;;
73452;SDS011;61687;56.232;43.854;2023-04-24T00:59:10;11.20;;;5.75;;
73452;SDS011;61687;56.232;43.854;2023-04-24T01:01:38;8.53;;;5.57;;
73452;SDS011;61687;56.232;43.854;2023-04-24T01:04:08;9.93;;;5.38;;
73452;SDS011;61687;56.232;43.854;2023-04-24T01:06:35;11.07;;;5.85;;
73452;SDS011;61687;56.232;43.854;2023-04-24T01:09:04;9.25;;;5.43;;
73452;SDS011;61687;56.232;43.854;2023-04-24T01:11:31;10.93;;;5.47;;
73452;SDS011;61687;56.232;43.854;2023-04-24T01:13:57;9.53;;;5.60;;
73452;SDS011;61687;56.232;43.854;2023-04-24T01:16:24;9.30;;;5.40;;
73452;SDS011;61687;56.232;43.854;2023-04-24T01:18:53;9.98;;;5.75;;
73452;SDS011;61687;56.232;43.854;2023-04-24T01:21:19;14.52;;;5.63;;
73452;SDS011;61687;56.232;43.854;2023-04-24T01:23:47;9.38;;;5.80;;
73452;SDS011;61687;56.232;43.854;2023-04-24T01:26:14;7.07;;;5.50;;
73452;SDS011;61687;56.232;43.854;2023-04-24T01:28:41;9.88;;;5.88;;
73452;SDS011;61687;56.232;43.854;2023-04-24T01:31:08;9.40;;;5.68;;
73452;SDS011;61687;56.232;43.854;2023-04-24T01:33:34;9.10;;;5.30;;
73452;SDS011;61687;56.232;43.854;2023-04-24T01:36:00;16.90;;;6.53;;
73452;SDS011;61687;56.232;43.854;2023-04-24T01:38:27;13.70;;;5.73;;
73452;SDS011;61687;56.232;43.854;2023-04-24T01:40:53;12.75;;;6.10;;
73452;SDS011;61687;56.232;43.854;2023-04-24T01:43:19;15.05;;;6.80;;
73452;SDS011;61687;56.232;43.854;2023-04-24T01:45:46;14.95;;;6.35;;
73452;SDS011;61687;56.232;43.854;2023-04-24T01:48:12;8.63;;;5.80;;
73452;SDS011;61687;56.232;43.854;2023-04-24T01:50:38;10.33;;;6.07;;
73452;SDS011;61687;56.232;43.854;2023-04-24T01:53:05;14.18;;;5.68;;
73452;SDS011;61687;56.232;43.854;2023-04-24T01:55:31;12.73;;;5.95;;
73452;SDS011;61687;56.232;43.854;2023-04-24T01:57:57;11.88;;;5.90;;
73452;SDS011;61687;56.232;43.854;2023-04-24T02:00:25;11.07;;;6.30;;
73452;SDS011;61687;56.232;43.854;2023-04-24T02:02:52;10.37;;;5.70;;
73452;SDS011;61687;56.232;43.854;2023-04-24T02:05:19;9.77;;;6.05;;
73452;SDS011;61687;56.232;43.854;2023-04-24T02:07:45;9.82;;;6.00;;
73452;SDS011;61687;56.232;43.854;2023-04-24T02:10:11;8.68;;;5.60;;
73452;SDS011;61687;56.232;43.854;2023-04-24T02:12:42;13.85;;;6.95;;
73452;SDS011;61687;56.232;43.854;2023-04-24T02:15:09;11.37;;;6.43;;
73452;SDS011;61687;56.232;43.854;2023-04-24T02:17:37;11.57;;;6.13;;
73452;SDS011;61687;56.232;43.854;2023-04-24T02:20:04;12.40;;;6.07;;
73452;SDS011;61687;56.232;43.854;2023-04-24T02:22:32;11.20;;;5.75;;
73452;SDS011;61687;56.232;43.854;2023-04-24T02:25:01;12.15;;;6.55;;
73452;SDS011;61687;56.232;43.854;2023-04-24T02:27:32;9.30;;;5.20;;
73452;SDS011;61687;56.232;43.854;2023-04-24T02:29:59;11.00;;;6.50;;
73452;SDS011;61687;56.232;43.854;2023-04-24T02:32:26;11.93;;;6.30;;
73452;SDS011;61687;56.232;43.854;2023-04-24T02:34:52;12.82;;;6.38;;
73452;SDS011;61687;56.232;43.854;2023-04-24T02:37:18;17.45;;;6.45;;
73452;SDS011;61687;56.232;43.854;2023-04-24T02:39:44;12.87;;;6.50;;
73452;SDS011;61687;56.232;43.854;2023-04-24T02:42:10;19.77;;;6.55;;
73452;SDS011;61687;56.232;43.854;2023-04-24T02:44:36;14.32;;;6.13;;
73452;SDS011;61687;56.232;43.854;2023-04-24T02:47:02;16.90;;;6.33;;
73452;SDS011;61687;56.232;43.854;2023-04-24T02:49:29;16.07;;;6.50;;
73452;SDS011;61687;56.232;43.854;2023-04-24T02:51:55;11.73;;;6.45;;
73452;SDS011;61687;56.232;43.854;2023-04-24T02:54:21;12.05;;;6.18;;
73452;SDS011;61687;56.232;43.854;2023-04-24T02:56:47;13.52;;;6.70;;
73452;SDS011;61687;56.232;43.854;2023-04-24T02:59:13;13.33;;;5.70;;
73452;SDS011;61687;56.232;43.854;2023-04-24T03:01:40;10.38;;;5.85;;
73452;SDS011;61687;56.232;43.854;2023-04-24T03:04:06;14.35;;;6.45;;
73452;SDS011;61687;56.232;43.854;2023-04-24T03:06:32;12.10;;;6.93;;
73452;SDS011;61687;56.232;43.854;2023-04-24T03:08:59;13.73;;;6.68;;
73452;SDS011;61687;56.232;43.854;2023-04-24T03:11:25;11.83;;;5.60;;
73452;SDS011;61687;56.232;43.854;2023-04-24T03:13:51;9.77;;;4.65;;
73452;SDS011;61687;56.232;43.854;2023-04-24T03:16:19;8.40;;;5.38;;
73452;SDS011;61687;56.232;43.854;2023-04-24T03:18:46;9.93;;;5.80;;
73452;SDS011;61687;56.232;43.854;2023-04-24T03:21:13;12.35;;;5.63;;
73452;SDS011;61687;56.232;43.854;2023-04-24T03:23:40;19.10;;;5.60;;
73452;SDS011;61687;56.232;43.854;2023-04-24T03:26:07;10.38;;;5.75;;
73452;SDS011;61687;56.232;43.854;2023-04-24T03:28:35;9.15;;;5.43;;
73452;SDS011;61687;56.232;43.854;2023-04-24T03:31:03;10.77;;;5.25;;
73452;SDS011;61687;56.232;43.854;2023-04-24T03:33:33;12.88;;;5.38;;
73452;SDS011;61687;56.232;43.854;2023-04-24T03:36:01;11.40;;;5.27;;
73452;SDS011;61687;56.232;43.854;2023-04-24T03:38:35;13.30;;;5.47;;
73452;SDS011;61687;56.232;43.854;2023-04-24T03:41:20;9.25;;;5.78;;
73452;SDS011;61687;56.232;43.854;2023-04-24T03:43:58;12.70;;;5.05;;
73452;SDS011;61687;56.232;43.854;2023-04-24T03:46:24;10.35;;;4.82;;
73452;SDS011;61687;56.232;43.854;2023-04-24T03:48:54;14.43;;;5.90;;
73452;SDS011;61687;56.232;43.854;2023-04-24T03:51:24;9.73;;;5.70;;
73452;SDS011;61687;56.232;43.854;2023-04-24T03:53:56;10.30;;;5.25;;
73452;SDS011;61687;56.232;43.854;2023-04-24T03:56:24;11.10;;;6.03;;
73452;SDS011;61687;56.232;43.854;2023-04-24T03:58:50;11.90;;;5.70;;
73452;SDS011;61687;56.232;43.854;2023-04-24T04:01:17;11.37;;;5.33;;
73452;SDS011;61687;56.232;43.854;2023-04-24T04:03:53;12.43;;;5.80;;
73452;SDS011;61687;56.232;43.854;2023-04-24T04:06:23;17.92;;;5.40;;
73452;SDS011;61687;56.232;43.854;2023-04-24T04:08:50;10.85;;;5.07;;
73452;SDS011;61687;56.232;43.854;2023-04-24T04:11:17;9.88;;;5.50;;
73452;SDS011;61687;56.232;43.854;2023-04-24T04:13:44;10.33;;;5.40;;
73452;SDS011;61687;56.232;43.854;2023-04-24T04:16:11;11.20;;;5.68;;
73452;SDS011;61687;56.232;43.854;2023-04-24T04:18:37;8.50;;;5.28;;
73452;SDS011;61687;56.232;43.854;2023-04-24T04:21:05;9.27;;;5.05;;
73452;SDS011;61687;56.232;43.854;2023-04-24T04:23:31;10.53;;;5.43;;
73452;SDS011;61687;56.232;43.854;2023-04-24T04:26:05;11.90;;;5.38;;
73452;SDS011;61687;56.232;43.854;2023-04-24T04:28:54;14.63;;;7.18;;
73452;SDS011;61687;56.232;43.854;2023-04-24T04:31:20;12.20;;;5.80;;
73452;SDS011;61687;56.232;43.854;2023-04-24T04:33:47;13.07;;;5.00;;
73452;SDS011;61687;56.232;43.854;2023-04-24T04:36:13;10.03;;;4.50;;
73452;SDS011;61687;56.232;43.854;2023-04-24T04:38:44;11.20;;;5.13;;
73452;SDS011;61687;56.232;43.854;2023-04-24T04:41:24;11.60;;;5.43;;
73452;SDS011;61687;56.232;43.854;2023-04-24T04:43:51;24.45;;;5.55;;
73452;SDS011;61687;56.232;43.854;2023-04-24T04:46:18;16.93;;;6.40;;
73452;SDS011;61687;56.232;43.854;2023-04-24T04:49:04;12.98;;;4.53;;
73452;SDS011;61687;56.232;43.854;2023-04-24T04:51:30;12.75;;;6.28;;
73452;SDS011;61687;56.232;43.854;2023-04-24T04:53:57;17.10;;;5.82;;
73452;SDS011;61687;56.232;43.854;2023-04-24T04:56:23;15.63;;;6.10;;
73452;SDS011;61687;56.232;43.854;2023-04-24T04:58:50;13.57;;;6.03;;
73452;SDS011;61687;56.232;43.854;2023-04-24T05:01:16;11.48;;;5.72;;
73452;SDS011;61687;56.232;43.854;2023-04-24T05:03:45;14.55;;;7.50;;
73452;SDS011;61687;56.232;43.854;2023-04-24T05:06:14;15.88;;;6.53;;
73452;SDS011;61687;56.232;43.854;2023-04-24T05:08:40;9.23;;;5.90;;
73452;SDS011;61687;56.232;43.854;2023-04-24T05:11:10;11.20;;;5.85;;
73452;SDS011;61687;56.232;43.854;2023-04-24T05:13:38;12.25;;;5.45;;
73452;SDS011;61687;56.232;43.854;2023-04-24T05:16:06;11.43;;;5.65;;
73452;SDS011;61687;56.232;43.854;2023-04-24T05:18:33;10.57;;;6.15;;
73452;SDS011;61687;56.232;43.854;2023-04-24T05:21:00;13.47;;;5.63;;
73452;SDS011;61687;56.232;43.854;2023-04-24T05:23:27;15.18;;;5.80;;
73452;SDS011;61687;56.232;43.854;2023-04-24T05:25:54;10.75;;;5.95;;
73452;SDS011;61687;56.232;43.854;2023-04-24T05:28:20;11.60;;;5.70;;
73452;SDS011;61687;56.232;43.854;2023-04-24T05:30:56;10.65;;;5.57;;
73452;SDS011;61687;56.232;43.854;2023-04-24T05:33:24;12.57;;;5.93;;
73452;SDS011;61687;56.232;43.854;2023-04-24T05:35:50;26.02;;;7.45;;
73452;SDS011;61687;56.232;43.854;2023-04-24T05:38:17;14.43;;;6.85;;
73452;SDS011;61687;56.232;43.854;2023-04-24T05:40:45;14.43;;;6.30;;
73452;SDS011;61687;56.232;43.854;2023-04-24T05:43:11;11.18;;;6.03;;
73452;SDS011;61687;56.232;43.854;2023-04-24T05:45:39;14.07;;;6.80;;
73452;SDS011;61687;56.232;43.854;2023-04-24T05:48:05;11.75;;;6.30;;
73452;SDS011;61687;56.232;43.854;2023-04-24T05:50:32;13.85;;;6.50;;
73452;SDS011;61687;56.232;43.854;2023-04-24T05:52:58;11.52;;;6.82;;
73452;SDS011;61687;56.232;43.854;2023-04-24T05:55:28;12.68;;;6.47;;
73452;SDS011;61687;56.232;43.854;2023-04-24T05:57:54;14.77;;;5.77;;
73452;SDS011;61687;56.232;43.854;2023-04-24T06:00:20;13.63;;;6.03;;
73452;SDS011;61687;56.232;43.854;2023-04-24T06:02:56;10.60;;;5.65;;
73452;SDS011;61687;56.232;43.854;2023-04-24T06:05:22;9.82;;;5.63;;
73452;SDS011;61687;56.232;43.854;2023-04-24T06:07:51;19.27;;;5.95;;
73452;SDS011;61687;56.232;43.854;2023-04-24T06:10:17;18.07;;;5.83;;
73452;SDS011;61687;56.232;43.854;2023-04-24T06:12:45;19.65;;;6.35;;
73452;SDS011;61687;56.232;43.854;2023-04-24T06:15:16;10.52;;;5.13;;
73452;SDS011;61687;56.232;43.854;2023-04-24T06:18:08;13.13;;;4.95;;
73452;SDS011;61687;56.232;43.854;2023-04-24T06:20:37;10.00;;;6.15;;
73452;SDS011;61687;56.232;43.854;2023-04-24T06:23:03;13.13;;;6.10;;
73452;SDS011;61687;56.232;43.854;2023-04-24T06:25:29;12.35;;;5.43;;
73452;SDS011;61687;56.232;43.854;2023-04-24T06:27:55;11.82;;;5.70;;
73452;SDS011;61687;56.232;43.854;2023-04-24T06:30:21;10.77;;;6.20;;
73452;SDS011;61687;56.232;43.854;2023-04-24T06:32:47;9.20;;;5.43;;
73452;SDS011;61687;56.232;43.854;2023-04-24T06:35:14;19.27;;;6.70;;
73452;SDS011;61687;56.232;43.854;2023-04-24T06:37:41;14.98;;;5.55;;
73452;SDS011;61687;56.232;43.854;2023-04-24T06:40:08;11.40;;;5.43;;
73452;SDS011;61687;56.232;43.854;2023-04-24T06:42:35;15.57;;;5.65;;
73452;SDS011;61687;56.232;43.854;2023-04-24T06:45:03;13.17;;;6.03;;
73452;SDS011;61687;56.232;43.854;2023-04-24T06:47:33;13.82;;;5.22;;
73452;SDS011;61687;56.232;43.854;2023-04-24T06:50:00;7.63;;;5.38;;
73452;SDS011;61687;56.232;43.854;2023-04-24T06:52:26;9.50;;;5.30;;
73452;SDS011;61687;56.232;43.854;2023-04-24T06:54:52;9.83;;;4.83;;
73452;SDS011;61687;56.232;43.854;2023-04-24T06:57:18;10.50;;;5.20;;
73452;SDS011;61687;56.232;43.854;2023-04-24T06:59:45;7.30;;;4.78;;
73452;SDS011;61687;56.232;43.854;2023-04-24T07:02:10;8.35;;;4.90;;
73452;SDS011;61687;56.232;43.854;2023-04-24T07:04:36;8.80;;;5.03;;
73452;SDS011;61687;56.232;43.854;2023-04-24T07:07:02;7.72;;;4.30;;
73452;SDS011;61687;56.232;43.854;2023-04-24T07:09:30;10.73;;;5.05;;
73452;SDS011;61687;56.232;43.854;2023-04-24T07:11:55;11.50;;;5.03;;
73452;SDS011;61687;56.232;43.854;2023-04-24T07:14:22;10.48;;;4.97;;
73452;SDS011;61687;56.232;43.854;2023-04-24T07:16:48;7.97;;;4.80;;
73452;SDS011;61687;56.232;43.854;2023-04-24T07:19:14;8.63;;;4.50;;
73452;SDS011;61687;56.232;43.854;2023-04-24T07:21:40;10.07;;;4.65;;
73452;SDS011;61687;56.232;43.854;2023-04-24T07:24:06;10.27;;;5.00;;
73452;SDS011;61687;56.232;43.854;2023-04-24T07:26:36;12.57;;;4.57;;
73452;SDS011;61687;56.232;43.854;2023-04-24T07:29:03;10.00;;;5.13;;
73452;SDS011;61687;56.232;43.854;2023-04-24T07:31:29;9.35;;;4.75;;
73452;SDS011;61687;56.232;43.854;2023-04-24T07:33:55;12.40;;;5.73;;
73452;SDS011;61687;56.232;43.854;2023-04-24T07:36:23;12.02;;;5.00;;
73452;SDS011;61687;56.232;43.854;2023-04-24T07:38:51;9.43;;;5.63;;
73452;SDS011;61687;56.232;43.854;2023-04-24T07:41:18;9.73;;;5.50;;
73452;SDS011;61687;56.232;43.854;2023-04-24T07:43:44;11.15;;;6.70;;
73452;SDS011;61687;56.232;43.854;2023-04-24T07:46:09;10.07;;;6.57;;
73452;SDS011;61687;56.232;43.854;2023-04-24T07:48:36;16.45;;;7.30;;
73452;SDS011;61687;56.232;43.854;2023-04-24T07:51:02;10.23;;;6.18;;
73452;SDS011;61687;56.232;43.854;2023-04-24T07:53:28;12.40;;;6.68;;
73452;SDS011;61687;56.232;43.854;2023-04-24T07:55:54;15.70;;;6.57;;
73452;SDS011;61687;56.232;43.854;2023-04-24T07:58:21;9.38;;;5.47;;
73452;SDS011;61687;56.232;43.854;2023-04-24T08:00:47;12.13;;;7.07;;
73452;SDS011;61687;56.232;43.854;2023-04-24T08:03:13;12.05;;;6.70;;
73452;SDS011;61687;56.232;43.854;2023-04-24T08:05:39;14.80;;;7.33;;
73452;SDS011;61687;56.232;43.854;2023-04-24T08:08:07;14.02;;;6.63;;
73452;SDS011;61687;56.232;43.854;2023-04-24T08:10:34;12.25;;;7.40;;
73452;SDS011;61687;56.232;43.854;2023-04-24T08:13:01;8.00;;;5.82;;
73452;SDS011;61687;56.232;43.854;2023-04-24T08:15:28;11.05;;;5.80;;
73452;SDS011;61687;56.232;43.854;2023-04-24T08:17:54;9.97;;;6.07;;
73452;SDS011;61687;56.232;43.854;2023-04-24T08:20:19;12.23;;;8.32;;
73452;SDS011;61687;56.232;43.854;2023-04-24T08:22:45;10.77;;;6.20;;
73452;SDS011;61687;56.232;43.854;2023-04-24T08:25:13;11.75;;;5.65;;
73452;SDS011;61687;56.232;43.854;2023-04-24T08:27:39;8.90;;;4.80;;
73452;SDS011;61687;56.232;43.854;2023-04-24T08:30:05;8.55;;;5.05;;
73452;SDS011;61687;56.232;43.854;2023-04-24T08:32:33;8.95;;;4.75;;
73452;SDS011;61687;56.232;43.854;2023-04-24T08:34:59;9.35;;;4.97;;
73452;SDS011;61687;56.232;43.854;2023-04-24T08:37:26;7.67;;;5.00;;
73452;SDS011;61687;56.232;43.854;2023-04-24T08:39:53;9.38;;;5.20;;
73452;SDS011;61687;56.232;43.854;2023-04-24T08:42:19;29.10;;;5.40;;
73452;SDS011;61687;56.232;43.854;2023-04-24T08:44:46;9.32;;;4.43;;
73452;SDS011;61687;56.232;43.854;2023-04-24T08:47:14;7.93;;;4.78;;
73452;SDS011;61687;56.232;43.854;2023-04-24T08:49:41;20.77;;;5.30;;
73452;SDS011;61687;56.232;43.854;2023-04-24T08:52:08;7.22;;;4.80;;
73452;SDS011;61687;56.232;43.854;2023-04-24T08:54:35;8.18;;;4.75;;
73452;SDS011;61687;56.232;43.854;2023-04-24T08:57:02;8.32;;;4.55;;
73452;SDS011;61687;56.232;43.854;2023-04-24T08:59:29;9.25;;;4.93;;
73452;SDS011;61687;56.232;43.854;2023-04-24T09:01:56;9.50;;;5.20;;
73452;SDS011;61687;56.232;43.854;2023-04-24T09:04:23;11.10;;;4.47;;
73452;SDS011;61687;56.232;43.854;2023-04-24T09:06:57;9.25;;;4.40;;
73452;SDS011;61687;56.232;43.854;2023-04-24T09:09:24;7.65;;;4.38;;
73452;SDS011;61687;56.232;43.854;2023-04-24T09:11:51;9.80;;;4.50;;
73452;SDS011;61687;56.232;43.854;2023-04-24T09:14:20;11.77;;;4.73;;
73452;SDS011;61687;56.232;43.854;2023-04-24T09:16:48;8.90;;;4.60;;
73452;SDS011;61687;56.232;43.854;2023-04-24T09:19:15;9.63;;;4.70;;
73452;SDS011;61687;56.232;43.854;2023-04-24T09:21:41;8.57;;;4.20;;
73452;SDS011;61687;56.232;43.854;2023-04-24T09:24:15;15.93;;;4.88;;
73452;SDS011;61687;56.232;43.854;2023-04-24T09:26:48;9.53;;;4.50;;
73452;SDS011;61687;56.232;43.854;2023-04-24T09:29:15;9.15;;;4.13;;
73452;SDS011;61687;56.232;43.854;2023-04-24T09:31:42;10.60;;;4.32;;
73452;SDS011;61687;56.232;43.854;2023-04-24T09:34:08;9.13;;;3.80;;
73452;SDS011;61687;56.232;43.854;2023-04-24T09:36:38;6.32;;;4.18;;
73452;SDS011;61687;56.232;43.854;2023-04-24T09:39:07;9.43;;;4.47;;
73452;SDS011;61687;56.232;43.854;2023-04-24T09:41:43;7.10;;;4.20;;
73452;SDS011;61687;56.232;43.854;2023-04-24T09:44:12;8.35;;;4.57;;
73452;SDS011;61687;56.232;43.854;2023-04-24T09:46:40;7.15;;;4.00;;
73452;SDS011;61687;56.232;43.854;2023-04-24T09:49:14;9.27;;;4.70;;
73452;SDS011;61687;56.232;43.854;2023-04-24T09:51:42;6.83;;;3.67;;
73452;SDS011;61687;56.232;43.854;2023-04-24T09:54:14;8.50;;;4.53;;
73452;SDS011;61687;56.232;43.854;2023-04-24T09:56:42;7.55;;;4.72;;
73452;SDS011;61687;56.232;43.854;2023-04-24T09:59:17;6.32;;;4.20;;
73452;SDS011;61687;56.232;43.854;2023-04-24T10:01:44;8.63;;;5.20;;
73452;SDS011;61687;56.232;43.854;2023-04-24T10:04:17;7.13;;;3.63;;
73452;SDS011;61687;56.232;43.854;2023-04-24T10:06:45;7.40;;;3.58;;
73452;SDS011;61687;56.232;43.854;2023-04-24T10:09:12;7.78;;;4.13;;
73452;SDS011;61687;56.232;43.854;2023-04-24T10:11:43;6.90;;;3.90;;
73452;SDS011;61687;56.232;43.854;2023-04-24T10:14:11;7.88;;;4.38;;
73452;SDS011;61687;56.232;43.854;2023-04-24T10:16:39;6.20;;;4.00;;
73452;SDS011;61687;56.232;43.854;2023-04-24T10:19:06;10.95;;;4.13;;
73452;SDS011;61687;56.232;43.854;2023-04-24T10:21:33;19.35;;;5.13;;
73452;SDS011;61687;56.232;43.854;2023-04-24T10:24:00;6.20;;;3.60;;
73452;SDS011;61687;56.232;43.854;2023-04-24T10:26:29;8.80;;;3.67;;
73452;SDS011;61687;56.232;43.854;2023-04-24T10:28:55;7.43;;;3.80;;
73452;SDS011;61687;56.232;43.854;2023-04-24T10:31:23;6.80;;;3.40;;
73452;SDS011;61687;56.232;43.854;2023-04-24T10:33:51;8.57;;;3.63;;
73452;SDS011;61687;56.232;43.854;2023-04-24T10:36:19;5.57;;;3.13;;
73452;SDS011;61687;56.232;43.854;2023-04-24T10:38:49;6.10;;;3.30;;
73452;SDS011;61687;56.232;43.854;2023-04-24T10:41:16;6.20;;;3.23;;
73452;SDS011;61687;56.232;43.854;2023-04-24T10:43:48;14.02;;;3.67;;
73452;SDS011;61687;56.232;43.854;2023-04-24T10:46:30;5.10;;;2.80;;
73452;SDS011;61687;56.232;43.854;2023-04-24T10:48:56;9.10;;;3.85;;
73452;SDS011;61687;56.232;43.854;2023-04-24T10:51:23;8.63;;;3.85;;
73452;SDS011;61687;56.232;43.854;2023-04-24T10:54:21;9.07;;;3.40;;
73452;SDS011;61687;56.232;43.854;2023-04-24T10:56:49;6.43;;;3.60;;
73452;SDS011;61687;56.232;43.854;2023-04-24T10:59:34;6.53;;;3.88;;
73452;SDS011;61687;56.232;43.854;2023-04-24T11:02:02;7.60;;;3.55;;
73452;SDS011;61687;56.232;43.854;2023-04-24T11:04:29;8.65;;;3.80;;
73452;SDS011;61687;56.232;43.854;2023-04-24T11:07:01;4.80;;;3.60;;
73452;SDS011;61687;56.232;43.854;2023-04-24T11:09:32;5.93;;;3.70;;
73452;SDS011;61687;56.232;43.854;2023-04-24T11:12:07;10.05;;;4.07;;
73452;SDS011;61687;56.232;43.854;2023-04-24T11:17:33;5.65;;;3.20;;
73452;SDS011;61687;56.232;43.854;2023-04-24T11:20:04;6.37;;;3.93;;
73452;SDS011;61687;56.232;43.854;2023-04-24T11:22:32;8.00;;;4.40;;
73452;SDS011;61687;56.232;43.854;2023-04-24T11:25:01;6.20;;;4.00;;
73452;SDS011;61687;56.232;43.854;2023-04-24T11:27:31;9.50;;;3.95;;
73452;SDS011;61687;56.232;43.854;2023-04-24T11:30:08;7.40;;;4.32;;
73452;SDS011;61687;56.232;43.854;2023-04-24T11:32:37;6.17;;;3.93;;
73452;SDS011;61687;56.232;43.854;2023-04-24T11:35:05;8.00;;;3.85;;
73452;SDS011;61687;56.232;43.854;2023-04-24T11:37:36;7.00;;;4.07;;
73452;SDS011;61687;56.232;43.854;2023-04-24T11:40:03;7.15;;;3.95;;
73452;SDS011;61687;56.232;43.854;2023-04-24T11:42:34;7.10;;;4.20;;
73452;SDS011;61687;56.232;43.854;2023-04-24T11:45:08;6.40;;;3.83;;
73452;SDS011;61687;56.232;43.854;2023-04-24T11:47:35;5.07;;;3.53;;
73452;SDS011;61687;56.232;43.854;2023-04-24T11:50:02;6.60;;;3.53;;
73452;SDS011;61687;56.232;43.854;2023-04-24T11:52:30;20.95;;;13.48;;
73452;SDS011;61687;56.232;43.854;2023-04-24T11:54:57;10.25;;;4.70;;
73452;SDS011;61687;56.232;43.854;2023-04-24T11:57:24;10.40;;;4.67;;
73452;SDS011;61687;56.232;43.854;2023-04-24T11:59:54;5.82;;;3.78;;
73452;SDS011;61687;56.232;43.854;2023-04-24T12:02:21;5.80;;;3.58;;
73452;SDS011;61687;56.232;43.854;2023-04-24T12:04:54;8.45;;;4.18;;
73452;SDS011;61687;56.232;43.854;2023-04-24T12:07:21;6.07;;;4.47;;
73452;SDS011;61687;56.232;43.854;2023-04-24T12:09:55;5.40;;;3.80;;
73452;SDS011;61687;56.232;43.854;2023-04-24T12:12:24;7.30;;;4.18;;
73452;SDS011;61687;56.232;43.854;2023-04-24T12:14:57;10.00;;;4.68;;
73452;SDS011;61687;56.232;43.854;2023-04-24T12:17:30;10.65;;;3.97;;
73452;SDS011;61687;56.232;43.854;2023-04-24T12:20:02;7.65;;;4.53;;
73452;SDS011;61687;56.232;43.854;2023-04-24T12:22:52;16.33;;;4.47;;
73452;SDS011;61687;56.232;43.854;2023-04-24T12:25:22;8.20;;;4.35;;
73452;SDS011;61687;56.232;43.854;2023-04-24T12:27:53;8.68;;;3.85;;
73452;SDS011;61687;56.232;43.854;2023-04-24T12:30:21;6.15;;;3.85;;
73452;SDS011;61687;56.232;43.854;2023-04-24T12:32:52;8.55;;;5.15;;
73452;SDS011;61687;56.232;43.854;2023-04-24T12:35:21;7.67;;;3.83;;
73452;SDS011;61687;56.232;43.854;2023-04-24T12:37:48;8.05;;;4.47;;
73452;SDS011;61687;56.232;43.854;2023-04-24T12:40:15;10.27;;;4.30;;
73452;SDS011;61687;56.232;43.854;2023-04-24T12:42:43;14.30;;;4.47;;
73452;SDS011;61687;56.232;43.854;2023-04-24T12:45:11;7.07;;;4.25;;
73452;SDS011;61687;56.232;43.854;2023-04-24T12:47:38;8.50;;;4.10;;
73452;SDS011;61687;56.232;43.854;2023-04-24T12:50:09;9.43;;;4.22;;
73452;SDS011;61687;56.232;43.854;2023-04-24T12:52:39;6.05;;;4.22;;
73452;SDS011;61687;56.232;43.854;2023-04-24T12:55:06;7.00;;;4.20;;
73452;SDS011;61687;56.232;43.854;2023-04-24T12:57:36;29.52;;;5.35;;
73452;SDS011;61687;56.232;43.854;2023-04-24T13:00:04;6.43;;;3.70;;
73452;SDS011;61687;56.232;43.854;2023-04-24T13:02:33;4.85;;;3.88;;
73452;SDS011;61687;56.232;43.854;2023-04-24T13:05:00;9.15;;;4.90;;
73452;SDS011;61687;56.232;43.854;2023-04-24T13:07:32;8.57;;;4.47;;
73452;SDS011;61687;56.232;43.854;2023-04-24T13:09:58;5.43;;;4.20;;
73452;SDS011;61687;56.232;43.854;2023-04-24T13:12:24;8.07;;;3.90;;
73452;SDS011;61687;56.232;43.854;2023-04-24T13:14:51;9.05;;;4.07;;
73452;SDS011;61687;56.232;43.854;2023-04-24T13:17:16;8.07;;;4.40;;
73452;SDS011;61687;56.232;43.854;2023-04-24T13:19:43;6.65;;;3.72;;
73452;SDS011;61687;56.232;43.854;2023-04-24T13:22:10;7.70;;;3.60;;
73452;SDS011;61687;56.232;43.854;2023-04-24T13:24:37;8.60;;;4.00;;
73452;SDS011;61687;56.232;43.854;2023-04-24T13:27:06;8.25;;;4.78;;
73452;SDS011;61687;56.232;43.854;2023-04-24T13:29:33;12.43;;;4.60;;
73452;SDS011;61687;56.232;43.854;2023-04-24T13:31:58;22.98;;;11.10;;
73452;SDS011;61687;56.232;43.854;2023-04-24T13:34:25;7.47;;;4.17;;
73452;SDS011;61687;56.232;43.854;2023-04-24T13:36:52;36.78;;;20.92;;
73452;SDS011;61687;56.232;43.854;2023-04-24T13:39:20;73.82;;;39.17;;
73452;SDS011;61687;56.232;43.854;2023-04-24T13:41:47;50.22;;;25.95;;
73452;SDS011;61687;56.232;43.854;2023-04-24T13:44:17;17.48;;;9.93;;
73452;SDS011;61687;56.232;43.854;2023-04-24T13:46:44;9.17;;;4.53;;
73452;SDS011;61687;56.232;43.854;2023-04-24T13:49:14;11.27;;;4.35;;
73452;SDS011;61687;56.232;43.854;2023-04-24T13:51:41;9.60;;;4.05;;
73452;SDS011;61687;56.232;43.854;2023-04-24T13:54:08;10.15;;;5.13;;
73452;SDS011;61687;56.232;43.854;2023-04-24T13:56:34;10.93;;;5.40;;
73452;SDS011;61687;56.232;43.854;2023-04-24T13:59:00;7.37;;;4.57;;
73452;SDS011;61687;56.232;43.854;2023-04-24T14:01:26;11.88;;;4.78;;
73452;SDS011;61687;56.232;43.854;2023-04-24T14:03:52;11.40;;;3.95;;
73452;SDS011;61687;56.232;43.854;2023-04-24T14:06:19;7.22;;;4.30;;
73452;SDS011;61687;56.232;43.854;2023-04-24T14:08:46;9.10;;;5.43;;
73452;SDS011;61687;56.232;43.854;2023-04-24T14:11:13;10.13;;;5.80;;
73452;SDS011;61687;56.232;43.854;2023-04-24T14:13:40;8.50;;;5.75;;
73452;SDS011;61687;56.232;43.854;2023-04-24T14:16:07;13.30;;;5.50;;
73452;SDS011;61687;56.232;43.854;2023-04-24T14:18:33;9.45;;;4.68;;
73452;SDS011;61687;56.232;43.854;2023-04-24T14:21:00;21.90;;;5.43;;
73452;SDS011;61687;56.232;43.854;2023-04-24T14:23:27;8.40;;;4.33;;
73452;SDS011;61687;56.232;43.854;2023-04-24T14:25:53;14.18;;;4.47;;
73452;SDS011;61687;56.232;43.854;2023-04-24T14:28:19;6.75;;;3.70;;
73452;SDS011;61687;56.232;43.854;2023-04-24T14:30:46;7.78;;;3.75;;
73452;SDS011;61687;56.232;43.854;2023-04-24T14:33:15;9.10;;;4.00;;
73452;SDS011;61687;56.232;43.854;2023-04-24T14:35:41;19.67;;;5.70;;